Time;durP1;ratioP1;P1;durP2;ratioP2;P2;SDS_P1;SDS_P2;PMS_P1;PMS_P2;Temp;Humidity;BMP_temperature;BMP_pressure;BME280_temperature;BME280_humidity;BME280_pressure;Samples;Min_cycle;Max_cycle;Signal;HPM_P1;HPM_P2
2022/01/08 00:00:57;;;;;;;10.80;4.57;;;;;;;2.32;80.29;99596.13;5016758;28;20038;-87
2022/01/08 00:03:26;;;;;;;10.60;4.05;;;;;;;2.34;80.31;99601.25;5022391;28;20030;-87
2022/01/08 00:05:59;;;;;;;7.30;3.70;;;;;;;2.35;80.29;99600.34;5026673;28;20112;-87
2022/01/08 00:08:24;;;;;;;6.95;3.97;;;;;;;2.36;80.55;99596.84;5018442;28;20502;-87
2022/01/08 00:11:02;;;;;;;8.77;4.28;;;;;;;2.39;80.05;99594.13;5019952;28;20109;-86
2022/01/08 00:13:37;;;;;;;6.47;3.42;;;;;;;2.36;80.06;99592.50;5019713;28;20038;-87
2022/01/08 00:16:06;;;;;;;6.78;3.95;;;;;;;2.38;80.20;99595.03;5010156;28;20037;-87
2022/01/08 00:18:41;;;;;;;5.90;3.33;;;;;;;2.40;79.88;99591.44;5016909;28;20033;-87
2022/01/08 00:21:15;;;;;;;7.70;3.60;;;;;;;2.42;80.00;99586.22;5022617;28;20443;-86
2022/01/08 00:23:41;;;;;;;9.10;3.70;;;;;;;2.42;79.88;99584.47;5012886;28;20796;-86
2022/01/08 00:26:06;;;;;;;10.48;3.50;;;;;;;2.38;80.17;99584.69;5022373;28;20053;-87
2022/01/08 00:28:34;;;;;;;6.40;3.17;;;;;;;2.40;80.02;99578.50;5048659;28;20033;-88
2022/01/08 00:31:04;;;;;;;12.48;3.22;;;;;;;2.40;79.81;99583.69;5024858;28;20042;-88
2022/01/08 00:33:31;;;;;;;5.13;2.75;;;;;;;2.42;80.06;99588.81;5032545;28;20339;-88
2022/01/08 00:35:59;;;;;;;12.90;3.30;;;;;;;2.40;80.11;99585.44;5032850;28;20033;-87
2022/01/08 00:38:33;;;;;;;6.68;3.10;;;;;;;2.42;79.93;99579.28;5022640;28;20044;-88
2022/01/08 00:41:01;;;;;;;6.90;3.25;;;;;;;2.41;79.88;99577.63;5012086;28;20033;-88
2022/01/08 00:43:33;;;;;;;6.72;2.78;;;;;;;2.38;80.51;99582.94;5013722;28;20034;-87
2022/01/08 00:46:01;;;;;;;7.38;3.20;;;;;;;2.37;79.98;99572.63;5020841;28;20018;-88
2022/01/08 00:48:27;;;;;;;7.47;3.53;;;;;;;2.35;80.26;99574.47;5026486;28;20030;-87
2022/01/08 00:50:55;;;;;;;6.10;3.05;;;;;;;2.35;80.25;99570.13;5026223;28;20044;-88
2022/01/08 00:53:22;;;;;;;7.10;3.80;;;;;;;2.34;80.32;99572.78;5031533;28;20049;-88
2022/01/08 00:55:47;;;;;;;13.13;3.42;;;;;;;2.31;80.24;99567.75;5033477;28;20029;-88
2022/01/08 00:58:14;;;;;;;7.20;3.28;;;;;;;2.28;80.76;99570.47;5011103;28;20038;-88
2022/01/08 01:00:42;;;;;;;5.97;2.95;;;;;;;2.24;80.64;99571.53;5014182;28;20018;-89
2022/01/08 01:03:08;;;;;;;6.93;3.03;;;;;;;2.26;80.77;99574.84;5023999;28;20037;-88
2022/01/08 01:05:34;;;;;;;6.75;3.45;;;;;;;2.24;80.83;99571.53;5035726;28;20089;-87
2022/01/08 01:08:02;;;;;;;7.53;3.83;;;;;;;2.21;81.07;99571.66;5046241;28;20123;-87
2022/01/08 01:10:28;;;;;;;7.63;4.00;;;;;;;2.14;81.27;99574.50;5034925;28;20092;-89
2022/01/08 01:12:53;;;;;;;6.95;3.50;;;;;;;2.04;81.65;99574.97;5023523;28;20025;-89
2022/01/08 01:15:19;;;;;;;6.97;3.58;;;;;;;1.88;82.54;99565.28;5040496;28;20029;-89
2022/01/08 01:17:48;;;;;;;8.23;3.50;;;;;;;1.80;82.39;99566.53;5043517;28;20029;-89
2022/01/08 01:20:16;;;;;;;8.77;3.72;;;;;;;1.67;82.57;99561.06;5028445;28;20057;-88
2022/01/08 01:22:56;;;;;;;7.22;3.65;;;;;;;1.55;82.82;99551.22;5013698;28;20088;-88
2022/01/08 01:25:29;;;;;;;6.32;3.55;;;;;;;1.44;83.44;99543.91;5012036;28;20049;-88
2022/01/08 01:28:02;;;;;;;8.50;3.75;;;;;;;1.37;83.80;99545.94;5013277;28;20028;-88
2022/01/08 01:41:50;;;;;;;8.15;3.10;;;;;;;1.11;84.50;99544.41;5009749;28;20037;-87
2022/01/08 01:47:02;;;;;;;16.48;6.78;;;;;;;1.02;85.26;99531.84;5028328;28;20041;-88
2022/01/08 01:49:43;;;;;;;9.68;4.72;;;;;;;0.96;85.51;99535.53;5020883;28;20042;-86
2022/01/08 01:52:13;;;;;;;6.65;3.67;;;;;;;0.95;85.51;99531.25;5051296;28;20039;-87
2022/01/08 01:54:42;;;;;;;6.50;3.33;;;;;;;0.94;85.69;99526.16;5015629;28;20021;-88
2022/01/08 01:57:09;;;;;;;6.85;4.07;;;;;;;0.94;85.43;99519.25;5023608;28;20048;-87
2022/01/08 01:59:37;;;;;;;6.47;3.72;;;;;;;0.88;85.61;99516.91;5035537;28;20573;-89
2022/01/08 02:02:04;;;;;;;8.25;3.47;;;;;;;0.83;85.93;99518.00;5032164;28;20049;-87
2022/01/08 02:04:30;;;;;;;7.68;3.72;;;;;;;0.80;86.20;99510.38;5026928;28;20554;-88
2022/01/08 02:06:55;;;;;;;8.35;3.42;;;;;;;0.75;86.34;99504.56;5022363;28;20112;-89
2022/01/08 02:09:20;;;;;;;7.13;3.72;;;;;;;0.71;86.71;99512.44;5033667;28;20022;-88
2022/01/08 02:12:00;;;;;;;5.47;3.35;;;;;;;0.65;87.22;99502.34;5035384;28;20041;-89
2022/01/08 02:14:28;;;;;;;6.85;3.35;;;;;;;0.62;87.58;99505.03;5032201;28;20131;-89
2022/01/08 02:16:54;;;;;;;9.20;4.00;;;;;;;0.61;87.58;99490.47;5029381;28;20033;-88
2022/01/08 02:19:20;;;;;;;8.25;3.42;;;;;;;0.56;87.95;99497.56;5030710;28;20063;-88
2022/01/08 02:21:56;;;;;;;8.52;3.88;;;;;;;0.57;87.65;99504.38;5028761;28;20062;-88
2022/01/08 02:24:23;;;;;;;10.80;4.10;;;;;;;0.54;87.91;99508.81;5035309;28;20366;-87
2022/01/08 02:26:49;;;;;;;7.05;3.28;;;;;;;0.52;87.90;99506.31;5034131;28;20096;-89
2022/01/08 02:29:17;;;;;;;6.55;3.47;;;;;;;0.52;88.32;99505.44;5032532;28;20040;-89
2022/01/08 02:31:53;;;;;;;6.70;3.28;;;;;;;0.59;88.16;99506.91;5029161;28;20057;-89
2022/01/08 02:34:18;;;;;;;9.23;3.92;;;;;;;0.60;87.76;99504.28;5031127;28;20034;-89
2022/01/08 02:36:44;;;;;;;9.70;4.20;;;;;;;0.63;87.90;99492.97;5030931;28;20045;-88
2022/01/08 02:39:09;;;;;;;5.88;3.17;;;;;;;0.65;87.61;99484.28;5031567;28;20021;-89
2022/01/08 02:41:35;;;;;;;8.13;3.75;;;;;;;0.67;88.11;99494.56;5034058;28;20044;-88
2022/01/08 02:44:00;;;;;;;5.80;2.92;;;;;;;0.66;87.87;99488.53;5028823;28;20125;-88
2022/01/08 02:46:28;;;;;;;7.60;3.25;;;;;;;0.69;87.91;99475.53;5033734;28;20097;-88
2022/01/08 02:48:54;;;;;;;6.50;3.25;;;;;;;0.70;87.93;99479.81;5048407;28;20079;-89
2022/01/08 02:51:19;;;;;;;5.95;2.78;;;;;;;0.71;87.38;99481.47;5031196;28;20029;-89
2022/01/08 02:53:45;;;;;;;5.70;3.13;;;;;;;0.71;87.36;99472.91;5033863;28;20588;-88
2022/01/08 02:56:10;;;;;;;5.47;2.83;;;;;;;0.69;87.51;99469.53;5025255;28;20118;-89
2022/01/08 02:58:36;;;;;;;6.63;3.20;;;;;;;0.66;87.58;99469.66;5037007;28;20037;-88
2022/01/08 03:01:02;;;;;;;7.57;3.55;;;;;;;0.66;87.72;99472.22;5030311;28;20128;-88
2022/01/08 03:03:27;;;;;;;9.90;3.60;;;;;;;0.65;87.86;99475.72;5038340;28;20041;-88
2022/01/08 03:05:53;;;;;;;7.20;3.45;;;;;;;0.63;87.65;99473.22;5037826;28;20038;-89
2022/01/08 03:08:19;;;;;;;6.57;3.20;;;;;;;0.61;88.32;99472.41;5025344;28;20041;-88
2022/01/08 03:10:45;;;;;;;12.07;3.58;;;;;;;0.64;88.39;99477.47;5024731;28;20030;-89
2022/01/08 03:13:10;;;;;;;6.38;3.50;;;;;;;0.66;88.25;99469.66;5037871;28;20041;-88
2022/01/08 03:15:39;;;;;;;10.68;3.55;;;;;;;0.69;87.88;99477.25;5034802;28;20025;-88
2022/01/08 03:18:06;;;;;;;6.53;3.47;;;;;;;0.71;87.74;99484.06;5027920;28;20060;-87
2022/01/08 03:20:34;;;;;;;9.25;3.78;;;;;;;0.69;87.60;99470.38;5048954;28;20025;-89
2022/01/08 03:23:05;;;;;;;7.35;3.63;;;;;;;0.71;87.78;99473.72;5046623;28;20074;-87
2022/01/08 03:25:31;;;;;;;8.27;3.83;;;;;;;0.66;87.90;99477.38;5042355;28;20029;-87
2022/01/08 03:27:57;;;;;;;8.18;3.20;;;;;;;0.62;87.97;99468.09;5046963;28;20022;-87
2022/01/08 03:30:28;;;;;;;7.30;3.65;;;;;;;0.59;88.57;99471.63;5070090;28;20056;-88
2022/01/08 03:32:53;;;;;;;12.07;3.90;;;;;;;0.56;88.64;99470.94;5051180;28;20054;-88
2022/01/08 03:35:19;;;;;;;7.65;3.42;;;;;;;0.54;88.56;99464.97;5046902;28;20103;-88
2022/01/08 03:38:07;;;;;;;7.75;3.22;;;;;;;0.51;88.74;99470.25;5054160;28;20025;-90
2022/01/08 03:40:33;;;;;;;8.50;3.25;;;;;;;0.49;89.07;99467.75;5050334;28;20038;-88
2022/01/08 03:42:59;;;;;;;8.15;3.40;;;;;;;0.52;89.19;99466.75;5053211;28;20045;-87
2022/01/08 03:45:24;;;;;;;10.70;3.35;;;;;;;0.54;89.01;99464.97;5041139;28;20018;-88
2022/01/08 03:48:18;;;;;;;7.28;3.33;;;;;;;0.58;88.89;99463.94;5042783;28;20056;-88
2022/01/08 03:50:44;;;;;;;12.23;3.28;;;;;;;0.61;88.66;99462.09;5034271;28;20034;-88
2022/01/08 03:53:10;;;;;;;6.55;3.40;;;;;;;0.65;88.20;99466.22;5034274;28;20069;-88
2022/01/08 03:55:39;;;;;;;7.63;3.20;;;;;;;0.69;88.19;99465.19;5047241;28;20037;-88
2022/01/08 03:58:04;;;;;;;11.67;4.03;;;;;;;0.72;88.23;99456.50;5054308;28;20450;-88
2022/01/08 04:00:52;;;;;;;5.47;2.80;;;;;;;0.73;88.28;99453.84;5046695;28;20282;-88
2022/01/08 04:03:34;;;;;;;5.10;3.13;;;;;;;0.77;87.92;99459.72;5028837;28;20081;-88
2022/01/08 04:09:06;;;;;;;5.50;3.00;;;;;;;0.76;87.97;99467.56;4997550;28;20053;-89
2022/01/08 04:12:04;;;;;;;9.93;3.28;;;;;;;0.73;87.88;99468.50;5007520;28;20096;-89
2022/01/08 04:15:19;;;;;;;11.23;3.30;;;;;;;0.69;88.48;99461.78;5014527;28;20381;-88
2022/01/08 04:17:50;;;;;;;7.10;3.50;;;;;;;0.63;88.25;99462.88;5031869;28;20033;-89
2022/01/08 04:20:29;;;;;;;13.27;3.22;;;;;;;0.60;88.60;99467.31;5015166;28;20042;-89
2022/01/08 04:22:55;;;;;;;8.00;3.15;;;;;;;0.56;88.72;99464.03;5025074;28;20113;-90
2022/01/08 04:25:23;;;;;;;7.13;4.03;;;;;;;0.54;89.14;99470.13;5043881;28;20033;-88
2022/01/08 04:27:51;;;;;;;7.18;3.97;;;;;;;0.50;89.10;99469.41;5022960;28;20120;-89
2022/01/08 04:30:17;;;;;;;9.73;4.68;;;;;;;0.47;89.56;99467.78;5023025;28;20022;-88
2022/01/08 04:32:42;;;;;;;8.57;4.20;;;;;;;0.47;89.39;99466.94;5017148;28;20076;-89
2022/01/08 04:35:08;;;;;;;11.57;5.10;;;;;;;0.50;89.82;99468.56;5030601;28;20044;-89
2022/01/08 04:37:34;;;;;;;8.15;4.10;;;;;;;0.52;89.60;99465.06;5022531;28;20034;-89
2022/01/08 04:40:00;;;;;;;7.55;4.25;;;;;;;0.54;89.25;99460.66;5027430;28;20057;-88
2022/01/08 04:42:25;;;;;;;8.05;4.35;;;;;;;0.54;89.71;99458.06;5023525;28;20025;-89
2022/01/08 04:44:54;;;;;;;10.43;4.45;;;;;;;0.53;89.38;99458.97;5034300;28;20097;-89
2022/01/08 04:47:20;;;;;;;9.15;3.80;;;;;;;0.53;89.39;99461.56;5035695;28;20087;-89
2022/01/08 04:49:45;;;;;;;8.02;4.50;;;;;;;0.55;89.26;99466.66;5030903;28;20037;-88
2022/01/08 04:52:14;;;;;;;7.63;4.15;;;;;;;0.53;89.57;99471.03;5032079;28;20046;-88
2022/01/08 04:54:39;;;;;;;8.88;4.35;;;;;;;0.51;89.61;99468.50;5034245;28;20061;-89
2022/01/08 04:57:07;;;;;;;11.38;5.63;;;;;;;0.55;89.74;99458.91;5030338;28;20108;-89
2022/01/08 04:59:35;;;;;;;11.02;5.25;;;;;;;0.62;90.12;99461.19;5022693;28;20033;-89
2022/01/08 05:02:06;;;;;;;8.93;5.03;;;;;;;0.68;90.07;99471.28;5034244;28;20033;-89
2022/01/08 05:04:31;;;;;;;8.38;4.97;;;;;;;0.75;89.54;99464.13;5043739;28;20044;-89
2022/01/08 05:07:08;;;;;;;7.80;4.75;;;;;;;0.81;89.38;99461.28;5020715;28;20025;-87
2022/01/08 05:09:34;;;;;;;14.98;5.55;;;;;;;0.86;89.20;99463.69;5034918;28;20034;-89
2022/01/08 05:12:02;;;;;;;7.80;4.75;;;;;;;0.91;88.95;99462.59;5031612;28;20045;-85
2022/01/08 05:14:30;;;;;;;10.27;5.00;;;;;;;0.97;88.78;99461.53;5037896;28;20048;-89
2022/01/08 05:16:59;;;;;;;13.07;5.10;;;;;;;1.00;88.27;99463.94;5035884;28;20037;-87
2022/01/08 05:19:37;;;;;;;10.80;5.55;;;;;;;1.03;88.38;99463.84;5032229;28;20148;-88
2022/01/08 05:22:06;;;;;;;12.73;5.20;;;;;;;1.04;87.84;99450.06;5037140;28;20478;-88
2022/01/08 05:24:34;;;;;;;8.60;4.93;;;;;;;1.05;87.73;99463.78;5029436;28;20105;-88
2022/01/08 05:27:03;;;;;;;11.07;5.37;;;;;;;1.06;87.94;99458.56;5023768;28;20545;-88
2022/01/08 05:29:30;;;;;;;;;;;;;;;1.10;87.88;99457.50;5028621;28;20279;-89
2022/01/08 05:31:55;;;;;;;10.15;5.63;;;;;;;1.13;88.45;99457.41;5030089;28;19936;-88
2022/01/08 05:34:21;;;;;;;11.25;5.72;;;;;;;1.17;87.80;99460.69;5030579;28;20446;-88
2022/01/08 05:36:49;;;;;;;14.98;5.88;;;;;;;1.18;88.12;99460.63;5030711;28;20029;-87
2022/01/08 05:39:14;;;;;;;11.20;5.50;;;;;;;1.20;87.97;99456.25;5034894;28;20032;-88
2022/01/08 05:41:39;;;;;;;9.07;5.47;;;;;;;1.23;87.77;99459.59;5033332;28;20026;-87
2022/01/08 05:44:05;;;;;;;11.90;5.90;;;;;;;1.26;87.66;99459.47;5032257;28;20034;-87
2022/01/08 05:46:31;;;;;;;9.38;4.80;;;;;;;1.26;87.67;99464.63;5037134;28;20034;-87
2022/01/08 05:49:00;;;;;;;7.93;5.15;;;;;;;1.30;87.69;99468.75;5031442;28;20385;-88
2022/01/08 05:51:26;;;;;;;10.43;5.43;;;;;;;1.29;87.55;99467.91;5042977;28;20025;-88
2022/01/08 05:53:51;;;;;;;9.50;5.20;;;;;;;1.34;87.26;99475.50;5017255;28;20034;-87
2022/01/08 05:56:17;;;;;;;11.00;5.40;;;;;;;1.37;86.89;99468.44;5027794;28;20033;-88
2022/01/08 05:58:42;;;;;;;8.02;5.00;;;;;;;1.36;87.20;99473.66;5020374;28;20095;-87
2022/01/08 06:01:08;;;;;;;9.88;5.60;;;;;;;1.39;87.43;99473.53;5026364;28;20051;-90
2022/01/08 06:03:33;;;;;;;11.50;5.43;;;;;;;1.44;86.53;99482.75;5026668;28;20429;-87
2022/01/08 06:06:01;;;;;;;13.73;5.15;;;;;;;1.43;86.88;99486.25;5030913;28;20247;-88
2022/01/08 06:08:26;;;;;;;10.68;5.63;;;;;;;1.43;87.05;99480.25;5044171;28;20057;-88
2022/01/08 06:10:52;;;;;;;11.82;6.10;;;;;;;1.47;86.96;99481.78;5031625;28;20715;-88
2022/01/08 06:13:18;;;;;;;11.18;5.30;;;;;;;1.49;87.20;99481.75;5023593;28;20128;-88
2022/01/08 06:15:43;;;;;;;11.23;5.57;;;;;;;1.50;87.13;99480.84;5042294;28;20160;-89
2022/01/08 06:18:10;;;;;;;11.10;5.40;;;;;;;1.53;87.12;99481.53;5028584;28;20022;-88
2022/01/08 06:20:35;;;;;;;11.40;5.30;;;;;;;1.54;87.16;99487.53;5031061;28;20056;-88
2022/01/08 06:23:04;;;;;;;9.30;5.18;;;;;;;1.57;87.10;99488.25;5022914;28;20490;-87
2022/01/08 06:25:30;;;;;;;10.63;5.10;;;;;;;1.59;86.99;99495.94;5034936;28;20044;-88
2022/01/08 06:27:56;;;;;;;9.38;5.65;;;;;;;1.59;86.85;99491.59;5034717;28;20024;-87
2022/01/08 06:30:21;;;;;;;12.23;5.60;;;;;;;1.61;86.82;99499.28;5028393;28;20096;-87
2022/01/08 06:32:48;;;;;;;9.15;5.10;;;;;;;1.62;87.10;99495.81;5024090;28;20073;-88
2022/01/08 06:35:13;;;;;;;11.65;5.82;;;;;;;1.65;87.52;99495.66;5031067;28;20041;-87
2022/01/08 06:37:39;;;;;;;16.05;9.25;;;;;;;2.62;99.27;99502.50;5025748;28;20034;-88
2022/01/08 06:40:05;;;;;;;19.77;5.60;;;;;;;2.42;91.23;99509.44;5028690;28;20055;-87
2022/01/08 06:42:32;;;;;;;13.20;5.63;;;;;;;2.40;88.55;99510.41;5032703;28;20101;-87
2022/01/08 06:45:00;;;;;;;11.18;4.75;;;;;;;2.27;87.03;99504.16;5033360;28;20480;-88
2022/01/08 06:47:26;;;;;;;13.65;5.13;;;;;;;2.22;85.86;99516.44;5033262;28;20042;-87
2022/01/08 06:49:51;;;;;;;12.23;5.05;;;;;;;2.20;85.66;99515.66;5031910;28;20061;-88
2022/01/08 06:52:19;;;;;;;11.75;4.63;;;;;;;2.00;86.20;99512.19;5047650;28;20124;-88
2022/01/08 06:54:44;;;;;;;8.23;3.95;;;;;;;1.91;86.76;99518.63;5040573;28;20029;-87
2022/01/08 06:57:17;;;;;;;8.25;4.40;;;;;;;1.87;87.34;99526.59;5023190;28;20045;-87
2022/01/08 06:59:50;;;;;;;9.50;4.90;;;;;;;1.80;87.49;99525.19;5028887;28;20034;-87
2022/01/08 07:02:15;;;;;;;7.30;4.55;;;;;;;1.77;87.92;99522.72;5027530;28;20034;-87
2022/01/08 07:04:41;;;;;;;9.27;4.57;;;;;;;1.75;87.93;99516.78;5026708;28;20044;-86
2022/01/08 07:07:08;;;;;;;9.73;4.80;;;;;;;1.72;88.09;99516.91;5027448;28;20432;-87
2022/01/08 07:09:39;;;;;;;8.25;4.82;;;;;;;1.73;88.56;99524.59;5032667;28;20021;-87
2022/01/08 07:12:05;;;;;;;8.20;4.78;;;;;;;1.70;88.85;99519.56;4997906;28;20145;-86
2022/01/08 07:14:30;;;;;;;7.25;4.65;;;;;;;1.69;88.84;99528.22;5026474;28;20061;-87
2022/01/08 07:16:58;;;;;;;10.13;5.55;;;;;;;1.69;89.10;99521.31;5027045;28;20100;-87
2022/01/08 07:19:24;;;;;;;7.35;4.45;;;;;;;1.71;89.10;99531.59;5024674;28;20037;-86
2022/01/08 07:21:50;;;;;;;9.80;5.10;;;;;;;1.73;89.50;99526.34;5030061;28;20022;-86
2022/01/08 07:24:15;;;;;;;9.02;5.43;;;;;;;1.72;88.95;99524.69;5026753;28;20025;-87
2022/01/08 07:26:41;;;;;;;13.52;5.72;;;;;;;1.72;88.98;99524.69;5017636;28;20061;-85
2022/01/08 07:29:06;;;;;;;9.52;5.47;;;;;;;1.72;89.40;99522.09;5033738;28;20120;-86
2022/01/08 07:31:32;;;;;;;7.88;4.97;;;;;;;1.74;89.18;99533.19;5030930;28;20037;-86
2022/01/08 07:33:57;;;;;;;13.13;5.60;;;;;;;1.72;89.43;99529.84;5027087;28;20053;-86
2022/01/08 07:36:25;;;;;;;9.00;5.25;;;;;;;1.70;89.60;99533.31;5033532;28;20032;-86
2022/01/08 07:38:51;;;;;;;10.50;5.40;;;;;;;1.71;89.80;99529.00;5033009;28;20025;-86
2022/01/08 07:41:17;;;;;;;10.68;5.45;;;;;;;1.76;90.20;99537.38;5014951;28;20120;-87
2022/01/08 07:43:44;;;;;;;10.57;5.60;;;;;;;1.79;90.10;99547.59;5025440;28;20064;-88
2022/01/08 07:46:10;;;;;;;8.63;4.72;;;;;;;1.81;90.02;99547.53;5026395;28;20029;-86
2022/01/08 07:52:28;;;;;;;9.02;4.35;;;;;;;1.84;89.46;99550.81;4978109;28;20038;-87
2022/01/08 07:54:54;;;;;;;8.82;4.45;;;;;;;1.89;89.27;99555.78;4991262;28;20027;-87
2022/01/08 07:57:22;;;;;;;12.07;5.07;;;;;;;1.87;89.39;99558.44;5006498;28;20141;-86
2022/01/08 07:59:48;;;;;;;9.00;4.80;;;;;;;1.89;89.37;99555.78;5023105;28;20044;-86
2022/01/08 08:02:16;;;;;;;9.93;4.20;;;;;;;1.91;88.90;99553.97;5032653;28;20033;-85
2022/01/08 08:04:42;;;;;;;9.57;4.32;;;;;;;1.90;89.03;99549.72;5030956;28;20034;-86
2022/01/08 08:07:07;;;;;;;15.90;4.80;;;;;;;1.93;88.93;99552.19;5030622;28;20037;-87
2022/01/08 08:09:33;;;;;;;11.90;4.70;;;;;;;1.94;88.70;99551.28;5033468;28;20112;-87
2022/01/08 08:12:04;;;;;;;9.40;4.50;;;;;;;1.93;88.55;99547.84;5037918;28;20058;-88
2022/01/08 08:14:33;;;;;;;8.35;4.50;;;;;;;1.96;88.46;99553.78;5031960;28;20121;-88
2022/01/08 08:16:59;;;;;;;8.32;4.15;;;;;;;1.99;88.34;99558.81;5030173;28;20033;-87
2022/01/08 08:19:30;;;;;;;7.82;4.10;;;;;;;2.00;88.01;99557.91;5029761;28;20421;-87
2022/01/08 08:22:01;;;;;;;7.63;3.58;;;;;;;1.97;88.33;99561.47;5032095;28;20017;-88
2022/01/08 08:24:32;;;;;;;5.45;3.00;;;;;;;1.96;87.73;99562.38;5029185;28;20353;-87
2022/01/08 08:27:00;;;;;;;9.07;3.10;;;;;;;1.98;87.47;99559.72;5017087;28;20046;-88
2022/01/08 08:29:28;;;;;;;6.77;3.50;;;;;;;1.98;87.39;99560.56;5034333;28;20152;-88
2022/01/08 08:31:54;;;;;;;9.38;3.40;;;;;;;1.98;87.38;99559.72;5032398;28;20330;-89
2022/01/08 08:34:21;;;;;;;5.15;2.83;;;;;;;1.96;87.90;99553.78;5033217;28;20037;-88
2022/01/08 08:36:47;;;;;;;7.55;4.00;;;;;;;1.97;87.77;99558.06;5032794;28;20025;-87
2022/01/08 08:39:20;;;;;;;11.07;3.97;;;;;;;1.99;87.65;99554.47;5029569;28;20386;-89
2022/01/08 08:41:46;;;;;;;9.48;3.72;;;;;;;2.01;87.65;99547.50;5020849;28;20037;-89
2022/01/08 08:47:49;;;;;;;7.90;3.65;;;;;;;2.03;87.72;99552.59;5031023;28;20040;-90
2022/01/08 08:50:41;;;;;;;35.17;20.10;;;;;;;2.05;87.72;99549.06;5011440;28;20113;-90
2022/01/08 08:53:06;;;;;;;17.92;6.30;;;;;;;2.05;87.57;99554.22;5040416;28;20040;-95
2022/01/08 08:55:32;;;;;;;10.93;4.47;;;;;;;2.03;87.46;99555.19;5041265;28;20035;-89
2022/01/08 08:57:57;;;;;;;9.48;4.38;;;;;;;2.00;87.10;99557.91;5026395;28;20075;-90
2022/01/08 09:00:33;;;;;;;8.07;3.22;;;;;;;2.05;87.40;99556.81;5039662;28;20045;-89
2022/01/08 09:03:04;;;;;;;9.38;4.28;;;;;;;2.07;87.04;99564.50;5029692;28;20386;-91
2022/01/08 09:05:30;;;;;;;9.60;4.10;;;;;;;2.05;86.81;99567.16;5032768;28;20041;-90
2022/01/08 09:08:22;;;;;;;9.70;3.33;;;;;;;2.04;86.61;99568.06;5033207;28;20503;-91
2022/01/08 09:10:48;;;;;;;6.20;2.75;;;;;;;2.04;86.88;99572.38;5040346;28;20045;-90
2022/01/08 09:13:47;;;;;;;7.28;2.78;;;;;;;2.04;86.68;99573.25;5033886;28;20038;-91
2022/01/08 09:16:30;;;;;;;9.30;2.65;;;;;;;2.03;86.66;99563.78;5026830;28;20383;-93
2022/01/08 09:18:58;;;;;;;8.55;2.80;;;;;;;2.05;87.04;99569.75;5046723;28;20021;-91
2022/01/08 09:21:24;;;;;;;10.57;3.30;;;;;;;2.12;86.45;99572.91;5035473;28;20067;-91
2022/01/08 09:24:07;;;;;;;7.35;2.55;;;;;;;2.18;87.09;99578.63;5034143;28;20120;-88
2022/01/08 09:26:36;;;;;;;7.93;2.60;;;;;;;2.27;86.76;99567.06;5019904;28;20049;-89
2022/01/08 09:29:02;;;;;;;7.57;2.65;;;;;;;2.33;86.56;99563.34;5004402;28;20523;-90
2022/01/08 09:31:27;;;;;;;9.00;3.40;;;;;;;2.39;86.34;99565.66;5020936;28;20160;-89
2022/01/08 09:33:53;;;;;;;6.30;2.70;;;;;;;2.44;86.46;99568.88;5033322;28;20029;-89
2022/01/08 09:36:18;;;;;;;7.75;3.42;;;;;;;2.49;86.18;99566.09;5035206;28;20048;-90
2022/01/08 09:38:57;;;;;;;;;;;;;;;;;;;;;
2022/01/08 09:44:50;;;;;;;5.50;2.58;;;;;;;2.42;86.49;99558.59;5032253;28;20055;-90
2022/01/08 09:47:16;;;;;;;7.05;3.30;;;;;;;2.48;86.73;99552.28;5036936;28;20040;-91
2022/01/08 09:49:56;;;;;;;;;;;;;;;;;;;;;
2022/01/08 09:52:22;;;;;;;7.65;3.58;;;;;;;2.60;86.58;99553.50;5009879;28;20128;-91
2022/01/08 09:54:48;;;;;;;12.73;3.25;;;;;;;2.62;86.55;99555.09;5013586;28;20442;-89
2022/01/08 09:57:16;;;;;;;10.30;3.58;;;;;;;2.64;86.42;99555.88;5030615;28;20028;-89
2022/01/08 09:59:44;;;;;;;8.77;3.30;;;;;;;2.59;86.11;99557.81;5024829;28;20110;-91
2022/01/08 10:02:12;;;;;;;9.23;3.45;;;;;;;2.57;86.52;99557.06;5014146;28;20035;-91
2022/01/08 10:04:41;;;;;;;12.65;3.67;;;;;;;2.58;86.88;99558.72;5012343;28;20120;-92
2022/01/08 10:07:24;;;;;;;9.00;3.63;;;;;;;2.60;86.22;99556.94;5015928;28;20030;-91
2022/01/08 10:09:59;;;;;;;9.93;3.40;;;;;;;2.63;87.10;99559.38;5035230;28;20040;-91
2022/01/08 10:12:51;;;;;;;11.93;3.35;;;;;;;2.61;86.50;99560.34;5035520;28;20030;-90
2022/01/08 10:18:36;;;;;;;8.15;3.03;;;;;;;2.60;86.59;99563.84;5034587;28;20044;-90
2022/01/08 10:21:24;;;;;;;10.07;3.40;;;;;;;2.57;86.49;99556.22;5023784;28;20033;-89
2022/01/08 10:24:22;;;;;;;8.55;3.05;;;;;;;2.57;87.10;99557.06;5045205;28;20043;-89
2022/01/08 10:26:49;;;;;;;11.23;3.20;;;;;;;2.55;87.02;99553.69;5022874;28;20085;-89
2022/01/08 10:29:21;;;;;;;6.35;2.78;;;;;;;2.57;86.63;99553.63;5034196;28;20116;-89
2022/01/08 10:31:56;;;;;;;11.18;3.38;;;;;;;2.62;87.16;99552.50;5040537;28;20473;-89
2022/01/08 10:34:26;;;;;;;7.85;3.42;;;;;;;2.67;86.88;99547.97;5012232;28;20037;-89
2022/01/08 10:36:55;;;;;;;6.90;3.33;;;;;;;2.71;86.98;99547.81;5019931;28;20029;-88
2022/01/08 10:39:28;;;;;;;13.60;3.88;;;;;;;2.71;86.83;99546.06;5031348;28;20105;-90
2022/01/08 10:42:05;;;;;;;11.95;3.65;;;;;;;2.77;87.02;99552.69;5027344;28;20044;-89
2022/01/08 10:44:39;;;;;;;7.20;3.47;;;;;;;2.75;86.92;99552.78;5030760;28;20439;-87
2022/01/08 10:47:26;;;;;;;7.78;3.42;;;;;;;2.79;86.54;99553.47;5012315;28;20037;-89
2022/01/08 10:50:13;;;;;;;10.88;4.03;;;;;;;2.80;86.58;99553.41;5008355;28;20041;-88
2022/01/08 10:53:08;;;;;;;10.85;4.10;;;;;;;2.76;85.32;99558.78;5014995;28;20045;-90
2022/01/08 10:55:41;;;;;;;10.50;4.40;;;;;;;2.74;85.59;99556.25;5020475;28;20073;-88
2022/01/08 10:58:10;;;;;;;10.95;4.22;;;;;;;2.78;85.61;99565.59;5027642;28;20438;-88
2022/01/08 11:00:48;;;;;;;13.93;5.47;;;;;;;2.73;85.86;99558.94;5044016;28;20033;-87
2022/01/08 11:03:39;;;;;;;9.02;4.40;;;;;;;2.69;85.80;99563.41;5009916;28;20040;-87
2022/01/08 11:06:31;;;;;;;14.73;5.20;;;;;;;2.72;86.28;99570.22;5035502;28;20034;-87
2022/01/08 11:09:29;;;;;;;9.25;4.57;;;;;;;2.73;86.68;99561.53;5031578;28;20042;-89
2022/01/08 11:12:02;;;;;;;9.98;4.85;;;;;;;2.71;86.75;99564.19;5018485;28;20056;-88
2022/01/08 11:17:38;;;;;;;11.55;4.75;;;;;;;2.63;86.93;99567.13;5035557;28;20037;-88
2022/01/08 11:20:47;;;;;;;16.75;5.75;;;;;;;2.63;87.16;99556.78;5034115;28;20056;-88
2022/01/08 11:23:57;;;;;;;11.43;4.85;;;;;;;2.62;86.75;99567.19;5017339;28;20044;-89
2022/01/08 11:26:24;;;;;;;10.35;4.72;;;;;;;2.64;87.12;99555.88;5032647;28;20270;-88
2022/01/08 11:28:49;;;;;;;9.15;4.88;;;;;;;2.64;86.46;99558.47;5023538;28;20088;-89
2022/01/08 11:31:17;;;;;;;11.55;5.93;;;;;;;2.59;85.61;99556.97;5024453;28;20143;-87
2022/01/08 11:33:47;;;;;;;11.60;5.75;;;;;;;2.57;86.38;99551.88;5031915;28;20156;-88
2022/01/08 11:36:15;;;;;;;9.45;5.30;;;;;;;2.52;86.49;99553.00;5039852;28;20017;-89
2022/01/08 11:38:43;;;;;;;10.55;5.60;;;;;;;2.62;87.04;99551.66;5032822;28;20057;-88
2022/01/08 11:41:09;;;;;;;10.48;6.00;;;;;;;2.68;86.66;99548.81;5033825;28;20041;-87
2022/01/08 11:44:36;;;;;;;18.48;6.85;;;;;;;2.70;86.06;99536.63;5018457;28;20576;-89
2022/01/08 11:47:19;;;;;;;10.57;6.15;;;;;;;2.75;85.56;99550.19;5020894;28;20041;-88
2022/01/08 11:49:46;;;;;;;11.98;6.00;;;;;;;2.77;85.36;99544.94;5037695;28;20041;-88
2022/01/08 11:52:25;;;;;;;12.70;6.22;;;;;;;2.79;85.39;99541.38;5023132;28;20469;-89
2022/01/08 11:54:52;;;;;;;10.25;5.57;;;;;;;2.87;85.04;99539.25;5028309;28;20096;-85
2022/01/08 11:57:36;;;;;;;12.77;6.20;;;;;;;2.83;85.11;99531.72;5038955;28;20106;-87
2022/01/08 12:00:05;;;;;;;15.70;7.20;;;;;;;2.87;84.83;99534.06;5025360;28;20053;-88
2022/01/08 12:02:44;;;;;;;;;;;;;;;2.85;84.48;99542.81;5040426;28;20086;-88
2022/01/08 12:05:27;;;;;;;;;;;;;;;2.76;84.65;99545.84;5024225;28;19916;-85
2022/01/08 12:08:19;;;;;;;13.40;6.22;;;;;;;2.73;84.44;99538.22;5032406;28;19955;-88
2022/01/08 12:11:01;;;;;;;10.68;6.25;;;;;;;2.79;84.54;99543.13;5037863;28;20042;-87
2022/01/08 12:13:46;;;;;;;15.85;7.35;;;;;;;2.85;84.30;99546.25;5023116;28;20177;-90
2022/01/08 12:16:45;;;;;;;10.40;6.93;;;;;;;2.94;82.29;99536.38;5026513;28;20438;-89
2022/01/08 12:19:28;;;;;;;14.73;6.90;;;;;;;3.08;82.29;99536.56;5014427;28;20108;-91
2022/01/08 12:21:54;;;;;;;16.67;8.10;;;;;;;3.14;81.81;99534.50;5023112;28;20693;-88
2022/01/08 12:24:28;;;;;;;12.52;7.25;;;;;;;3.28;81.98;99538.19;5013910;28;20030;-88
2022/01/08 12:27:15;;;;;;;27.05;9.60;;;;;;;3.37;82.87;99530.81;5033717;28;20147;-91
2022/01/08 12:29:42;;;;;;;17.08;8.20;;;;;;;3.47;81.78;99528.56;5032984;28;20111;-88
2022/01/08 12:32:36;;;;;;;17.00;7.10;;;;;;;3.50;80.04;99523.25;5041072;28;20069;-89